Time;durP1;ratioP1;P1;durP2;ratioP2;P2;SDS_P1;SDS_P2;PMS_P1;PMS_P2;Temp;Humidity;BMP_temperature;BMP_pressure;BME280_temperature;BME280_humidity;BME280_pressure;Samples;Min_cycle;Max_cycle;Signal;HPM_P1;HPM_P2
2022/06/27 00:01:57;;;;;;;;;;;31.70;47.00;;;;;;5055263;28;19912;-75
2022/06/27 00:04:22;;;;;;;;;;;31.80;47.30;;;;;;5020485;28;19917;-76
2022/06/27 00:06:48;;;;;;;;;;;31.70;47.10;;;;;;5020602;28;20296;-76
2022/06/27 00:09:13;;;;;;;;;;;31.70;47.10;;;;;;5020164;28;20364;-76
2022/06/27 00:11:39;;;;;;;;;;;31.70;47.90;;;;;;5037010;28;20280;-76
2022/06/27 00:14:04;;;;;;;;;;;31.70;47.20;;;;;;5036931;28;20064;-76
2022/06/27 00:16:30;;;;;;;;;;;31.70;47.00;;;;;;5037227;28;19909;-75
2022/06/27 00:18:55;;;;;;;;;;;31.70;47.10;;;;;;5054596;28;20357;-76
2022/06/27 00:21:20;;;;;;;;;;;31.70;47.10;;;;;;5054186;28;19935;-76
2022/06/27 00:23:46;;;;;;;;;;;31.70;47.00;;;;;;5054892;28;19920;-75
2022/06/27 00:26:11;;;;;;;;;;;31.70;47.00;;;;;;5036741;28;19913;-75
2022/06/27 00:28:37;;;;;;;;;;;31.70;47.00;;;;;;5037021;28;19913;-76
2022/06/27 00:31:02;;;;;;;;;;;31.70;47.00;;;;;;5020006;28;19908;-76
2022/06/27 00:33:28;;;;;;;;;;;31.70;47.00;;;;;;5036687;28;19916;-76
2022/06/27 00:35:53;;;;;;;;;;;31.70;47.20;;;;;;5054457;28;19916;-76
2022/06/27 00:38:19;;;;;;;;;;;31.70;47.10;;;;;;5036494;28;19909;-76
2022/06/27 00:40:44;;;;;;;;;;;31.70;47.10;;;;;;5036475;28;19991;-76
2022/06/27 00:43:10;;;;;;;;;;;31.60;47.00;;;;;;5036814;28;19909;-76
2022/06/27 00:45:35;;;;;;;;;;;31.70;47.00;;;;;;5036648;28;19912;-76
2022/06/27 00:48:01;;;;;;;;;;;31.60;47.10;;;;;;5036492;28;19913;-75
2022/06/27 00:50:26;;;;;;;;;;;31.60;47.10;;;;;;5036926;28;19909;-76
2022/06/27 00:52:52;;;;;;;;;;;31.60;46.90;;;;;;5036625;28;19908;-76
2022/06/27 00:55:17;;;;;;;;;;;31.60;47.00;;;;;;5020183;28;19921;-77
2022/06/27 00:57:43;;;;;;;;;;;31.70;47.10;;;;;;5054572;28;19916;-76
2022/06/27 01:00:08;;;;;;;;;;;31.60;47.00;;;;;;5036696;28;19916;-77
2022/06/27 01:02:34;;;;;;;;;;;31.60;47.00;;;;;;5020226;28;19909;-76
2022/06/27 01:04:59;;;;;;;;;;;31.60;47.00;;;;;;5017307;28;19917;-75
2022/06/27 01:07:25;;;;;;;;;;;31.60;46.80;;;;;;5033254;28;19967;-76
2022/06/27 01:09:50;;;;;;;;;;;31.60;46.90;;;;;;5033938;28;19958;-76
2022/06/27 01:12:16;;;;;;;;;;;31.60;46.80;;;;;;5016773;28;20254;-75
2022/06/27 01:14:41;;;;;;;;;;;31.60;47.70;;;;;;5033163;28;19910;-76
2022/06/27 01:17:07;;;;;;;;;;;31.60;46.80;;;;;;5033215;28;20008;-76
2022/06/27 01:19:33;;;;;;;;;;;31.60;46.90;;;;;;5016416;28;20008;-76
2022/06/27 01:21:59;;;;;;;;;;;31.60;46.70;;;;;;5033396;28;20258;-76
2022/06/27 01:24:26;;;;;;;;;;;31.60;46.70;;;;;;5016583;28;19916;-76
2022/06/27 01:26:51;;;;;;;;;;;31.60;46.70;;;;;;5017115;28;19913;-76
2022/06/27 01:29:17;;;;;;;;;;;31.60;46.70;;;;;;5016293;28;20410;-76
2022/06/27 01:31:42;;;;;;;;;;;31.60;46.70;;;;;;5035118;28;19909;-77
2022/06/27 01:34:08;;;;;;;;;;;31.60;46.60;;;;;;5036915;28;20270;-76
2022/06/27 01:36:42;;;;;;;;;;;31.60;46.50;;;;;;5036627;28;20001;-77
2022/06/27 01:39:12;;;;;;;;;;;31.60;46.50;;;;;;5036282;28;19952;-76
2022/06/27 01:41:39;;;;;;;;;;;31.50;46.60;;;;;;5020251;28;19967;-76
2022/06/27 01:44:04;;;;;;;;;;;31.50;46.50;;;;;;5036630;28;19909;-77
2022/06/27 01:46:44;;;;;;;;;;;31.60;46.50;;;;;;5036247;28;19919;-77
2022/06/27 01:49:10;;;;;;;;;;;31.50;46.50;;;;;;5036418;28;19916;-76
2022/06/27 01:51:35;;;;;;;;;;;31.60;46.50;;;;;;5036213;28;19913;-76
2022/06/27 01:54:01;;;;;;;;;;;31.50;46.50;;;;;;5037326;28;19928;-75
2022/06/27 01:56:26;;;;;;;;;;;31.50;46.60;;;;;;5037025;28;20343;-77
2022/06/27 01:58:52;;;;;;;;;;;31.40;46.60;;;;;;5036287;28;19935;-77
2022/06/27 02:01:18;;;;;;;;;;;31.50;46.50;;;;;;5035659;28;19917;-76
2022/06/27 02:03:44;;;;;;;;;;;31.40;46.30;;;;;;5035947;28;20343;-76
2022/06/27 02:06:09;;;;;;;;;;;31.50;46.50;;;;;;5036179;28;19917;-75
2022/06/27 02:08:35;;;;;;;;;;;31.50;46.50;;;;;;5019242;28;20353;-76
2022/06/27 02:11:00;;;;;;;;;;;31.40;46.40;;;;;;5019198;28;19913;-76
2022/06/27 02:13:25;;;;;;;;;;;31.40;46.30;;;;;;5037204;28;20012;-76
2022/06/27 02:16:05;;;;;;;;;;;31.40;46.30;;;;;;5018952;28;19916;-75
2022/06/27 02:18:31;;;;;;;;;;;31.40;46.40;;;;;;5035820;28;19924;-77
2022/06/27 02:20:56;;;;;;;;;;;31.40;46.40;;;;;;5019076;28;20369;-76
2022/06/27 02:23:22;;;;;;;;;;;31.40;46.30;;;;;;5018914;28;19940;-76
2022/06/27 02:25:48;;;;;;;;;;;31.40;46.40;;;;;;5019157;28;19957;-77
2022/06/27 02:28:13;;;;;;;;;;;31.40;46.40;;;;;;5019081;28;19909;-76
2022/06/27 02:30:39;;;;;;;;;;;31.40;46.30;;;;;;5035240;28;19909;-76
2022/06/27 02:33:04;;;;;;;;;;;31.30;46.20;;;;;;5036107;28;19944;-76
2022/06/27 02:35:30;;;;;;;;;;;31.40;46.40;;;;;;5035506;28;19909;-76
2022/06/27 02:37:55;;;;;;;;;;;31.40;46.40;;;;;;5035174;28;19909;-76
2022/06/27 02:40:21;;;;;;;;;;;31.40;46.40;;;;;;5018814;28;20312;-76
2022/06/27 02:42:46;;;;;;;;;;;31.40;46.30;;;;;;5017881;28;19917;-76
2022/06/27 02:45:12;;;;;;;;;;;31.30;46.30;;;;;;5035414;28;19964;-76
2022/06/27 02:47:38;;;;;;;;;;;31.40;46.40;;;;;;5035187;28;19917;-77
2022/06/27 02:50:03;;;;;;;;;;;31.40;46.50;;;;;;5035184;28;19909;-76
2022/06/27 02:52:35;;;;;;;;;;;31.40;46.50;;;;;;5036261;28;20028;-76
2022/06/27 02:55:08;;;;;;;;;;;31.30;46.50;;;;;;5035190;28;19940;-77
2022/06/27 02:57:52;;;;;;;;;;;31.30;46.40;;;;;;5035212;28;19909;-76
2022/06/27 03:00:18;;;;;;;;;;;31.30;46.50;;;;;;5036014;28;19917;-76
2022/06/27 03:02:44;;;;;;;;;;;31.40;46.50;;;;;;5034813;28;20265;-76
2022/06/27 03:05:09;;;;;;;;;;;31.30;46.30;;;;;;5034737;28;19939;-76
2022/06/27 03:07:38;;;;;;;;;;;31.30;46.40;;;;;;5034573;28;20012;-76
2022/06/27 03:10:04;;;;;;;;;;;31.30;46.40;;;;;;5014431;28;20342;-76
2022/06/27 03:12:29;;;;;;;;;;;31.30;46.40;;;;;;5013592;28;19957;-76
2022/06/27 03:14:55;;;;;;;;;;;31.30;46.30;;;;;;5016110;28;19945;-75
2022/06/27 03:17:20;;;;;;;;;;;31.20;46.50;;;;;;5014945;28;20284;-76
2022/06/27 03:19:46;;;;;;;;;;;31.30;46.40;;;;;;5014863;28;20000;-76
2022/06/27 03:22:11;;;;;;;;;;;31.30;46.40;;;;;;5014654;28;19910;-76
2022/06/27 03:24:37;;;;;;;;;;;31.20;46.30;;;;;;5014792;28;19910;-76
2022/06/27 03:27:02;;;;;;;;;;;31.20;46.30;;;;;;5014319;28;19913;-76
2022/06/27 03:29:28;;;;;;;;;;;31.30;46.30;;;;;;5015666;28;20005;-76
2022/06/27 03:31:53;;;;;;;;;;;31.30;46.40;;;;;;5014680;28;20369;-77
2022/06/27 03:34:19;;;;;;;;;;;31.30;46.30;;;;;;5015700;28;19913;-76
2022/06/27 03:36:44;;;;;;;;;;;31.20;46.30;;;;;;4998007;28;19915;-76
2022/06/27 03:39:11;;;;;;;;;;;31.20;46.30;;;;;;5014225;28;19952;-76
2022/06/27 03:41:37;;;;;;;;;;;31.30;46.40;;;;;;5013332;28;19910;-76
2022/06/27 03:44:04;;;;;;;;;;;31.20;46.20;;;;;;5013587;28;19951;-77
2022/06/27 03:46:29;;;;;;;;;;;31.20;46.20;;;;;;5013299;28;19948;-76
2022/06/27 03:51:39;;;;;;;;;;;31.20;46.20;;;;;;5013448;28;20281;-76
2022/06/27 03:54:04;;;;;;;;;;;31.10;46.30;;;;;;5014942;28;19910;-76
2022/06/27 03:56:29;;;;;;;;;;;31.20;46.30;;;;;;4998287;28;19910;-77
2022/06/27 03:58:55;;;;;;;;;;;31.10;46.20;;;;;;5015041;28;20291;-76
2022/06/27 04:01:20;;;;;;;;;;;31.10;46.20;;;;;;5013826;28;19914;-77
2022/06/27 04:03:46;;;;;;;;;;;31.10;46.20;;;;;;5019145;28;19917;-76
2022/06/27 04:06:11;;;;;;;;;;;31.10;46.30;;;;;;5000637;28;20363;-76
2022/06/27 04:08:37;;;;;;;;;;;31.10;46.20;;;;;;5035139;28;19932;-77
2022/06/27 04:11:02;;;;;;;;;;;31.10;46.20;;;;;;5034950;28;19910;-76
2022/06/27 04:13:28;;;;;;;;;;;31.10;46.30;;;;;;5034054;28;19913;-76
2022/06/27 04:15:53;;;;;;;;;;;31.00;46.20;;;;;;4999854;28;19916;-76
2022/06/27 04:18:18;;;;;;;;;;;31.00;46.30;;;;;;5016860;28;20304;-78
2022/06/27 04:20:44;;;;;;;;;;;31.00;46.20;;;;;;5017326;28;19956;-77
2022/06/27 04:23:09;;;;;;;;;;;31.00;46.20;;;;;;5016819;28;19984;-77
2022/06/27 04:25:35;;;;;;;;;;;31.10;46.30;;;;;;5034152;28;19916;-77
2022/06/27 04:28:00;;;;;;;;;;;31.00;46.30;;;;;;5015946;28;19913;-77
2022/06/27 04:30:27;;;;;;;;;;;31.10;46.40;;;;;;5016610;28;19981;-77
2022/06/27 04:32:53;;;;;;;;;;;31.00;46.30;;;;;;5000835;28;19974;-76
2022/06/27 04:35:18;;;;;;;;;;;31.00;46.30;;;;;;5016901;28;19913;-76
2022/06/27 04:37:44;;;;;;;;;;;31.00;46.30;;;;;;5001300;28;19910;-77
2022/06/27 04:40:10;;;;;;;;;;;31.00;46.30;;;;;;5016703;28;19909;-76
2022/06/27 04:42:35;;;;;;;;;;;31.00;46.40;;;;;;5000117;28;19909;-77
2022/06/27 04:45:02;;;;;;;;;;;31.00;46.40;;;;;;5016176;28;19958;-78
2022/06/27 04:47:27;;;;;;;;;;;31.00;46.40;;;;;;5016130;28;20355;-77
2022/06/27 04:49:52;;;;;;;;;;;30.90;46.40;;;;;;5016633;28;20013;-77
2022/06/27 04:52:18;;;;;;;;;;;31.00;46.30;;;;;;5016969;28;19963;-76
2022/06/27 04:54:43;;;;;;;;;;;31.00;46.40;;;;;;5016889;28;20381;-76
2022/06/27 04:57:09;;;;;;;;;;;30.90;47.10;;;;;;5016881;28;19999;-76
2022/06/27 04:59:36;;;;;;;;;;;30.90;46.50;;;;;;5016621;28;21267;-77
2022/06/27 05:02:02;;;;;;;;;;;30.90;46.40;;;;;;5016694;28;19952;-76
2022/06/27 05:04:30;;;;;;;;;;;30.90;46.50;;;;;;5000158;28;19921;-77
2022/06/27 05:06:55;;;;;;;;;;;30.90;46.40;;;;;;5036575;28;20340;-77
2022/06/27 05:09:21;;;;;;;;;;;30.90;47.10;;;;;;5020526;28;19917;-77
2022/06/27 05:11:48;;;;;;;;;;;30.90;46.50;;;;;;5020240;28;19917;-77
2022/06/27 05:14:14;;;;;;;;;;;30.80;46.40;;;;;;5003710;28;20013;-77
2022/06/27 05:16:39;;;;;;;;;;;30.80;46.40;;;;;;5019483;28;19956;-76
2022/06/27 05:19:05;;;;;;;;;;;30.80;46.40;;;;;;5037402;28;19917;-77
2022/06/27 05:21:30;;;;;;;;;;;30.80;46.50;;;;;;5019726;28;19935;-77
2022/06/27 05:23:56;;;;;;;;;;;30.80;46.50;;;;;;5019670;28;19924;-76
2022/06/27 05:26:21;;;;;;;;;;;30.80;46.50;;;;;;5037244;28;20000;-76
2022/06/27 05:28:47;;;;;;;;;;;30.80;46.50;;;;;;5019394;28;19913;-77
2022/06/27 05:31:12;;;;;;;;;;;30.80;46.50;;;;;;5019565;28;20451;-76
2022/06/27 05:33:38;;;;;;;;;;;30.80;46.50;;;;;;5018984;28;20011;-77
2022/06/27 05:36:04;;;;;;;;;;;30.80;46.50;;;;;;5036624;28;20269;-77
2022/06/27 05:38:31;;;;;;;;;;;30.80;46.50;;;;;;5019460;28;19909;-77
2022/06/27 05:40:57;;;;;;;;;;;30.80;46.50;;;;;;5002694;28;19996;-77
2022/06/27 05:43:23;;;;;;;;;;;30.80;46.50;;;;;;5019023;28;19944;-77
2022/06/27 05:45:48;;;;;;;;;;;30.80;46.60;;;;;;5018896;28;19993;-77
2022/06/27 05:48:14;;;;;;;;;;;30.80;46.50;;;;;;5018967;28;19913;-77
2022/06/27 05:50:40;;;;;;;;;;;30.80;46.50;;;;;;5018755;28;20373;-77
2022/06/27 05:53:06;;;;;;;;;;;30.80;46.50;;;;;;5002464;28;19909;-77
2022/06/27 05:55:32;;;;;;;;;;;30.80;46.60;;;;;;5019004;28;20028;-76
2022/06/27 05:57:58;;;;;;;;;;;30.80;46.70;;;;;;5002599;28;19913;-76
2022/06/27 06:00:24;;;;;;;;;;;30.80;46.50;;;;;;5018350;28;20419;-78
2022/06/27 06:02:50;;;;;;;;;;;30.80;46.70;;;;;;5002475;28;20284;-76
2022/06/27 06:05:17;;;;;;;;;;;30.80;46.60;;;;;;5018259;28;19918;-76
2022/06/27 06:07:43;;;;;;;;;;;30.70;46.50;;;;;;5018608;28;19917;-76
2022/06/27 06:10:08;;;;;;;;;;;30.70;46.60;;;;;;5018708;28;19952;-77
2022/06/27 06:12:34;;;;;;;;;;;30.70;46.50;;;;;;5018183;28;19909;-76
2022/06/27 06:15:03;;;;;;;;;;;30.70;46.60;;;;;;5018256;28;20000;-76
2022/06/27 06:17:29;;;;;;;;;;;30.80;46.70;;;;;;5017356;28;19913;-76
2022/06/27 06:19:54;;;;;;;;;;;30.80;46.70;;;;;;5035886;28;20318;-77
2022/06/27 06:22:20;;;;;;;;;;;30.80;46.70;;;;;;5001740;28;20012;-76
2022/06/27 06:24:47;;;;;;;;;;;30.70;46.70;;;;;;5018213;28;20424;-76
2022/06/27 06:27:13;;;;;;;;;;;30.80;46.70;;;;;;5017873;28;19963;-77
2022/06/27 06:29:40;;;;;;;;;;;30.70;46.70;;;;;;5017916;28;19909;-77
2022/06/27 06:32:07;;;;;;;;;;;30.70;46.70;;;;;;5035458;28;20391;-76
2022/06/27 06:34:33;;;;;;;;;;;30.70;46.60;;;;;;5035569;28;19951;-76
2022/06/27 06:36:58;;;;;;;;;;;30.80;46.70;;;;;;5035527;28;19913;-77
2022/06/27 06:39:23;;;;;;;;;;;30.70;46.70;;;;;;5035939;28;19962;-76
2022/06/27 06:41:50;;;;;;;;;;;30.70;46.70;;;;;;5001545;28;20285;-76
2022/06/27 06:44:15;;;;;;;;;;;30.70;46.70;;;;;;5001503;28;19916;-77
2022/06/27 06:46:41;;;;;;;;;;;30.70;46.70;;;;;;5001208;28;20273;-76
2022/06/27 06:49:10;;;;;;;;;;;30.70;46.70;;;;;;5017867;28;19909;-77
2022/06/27 06:51:37;;;;;;;;;;;30.70;46.70;;;;;;5001864;28;19940;-77
2022/06/27 06:54:02;;;;;;;;;;;30.70;46.70;;;;;;5001385;28;19991;-76
2022/06/27 06:56:30;;;;;;;;;;;30.70;46.80;;;;;;5017719;28;19951;-76
2022/06/27 06:58:56;;;;;;;;;;;30.60;46.70;;;;;;5018431;28;20324;-76
2022/06/27 07:01:22;;;;;;;;;;;30.70;46.80;;;;;;5035886;28;19910;-76
2022/06/27 07:03:49;;;;;;;;;;;30.60;46.70;;;;;;5001389;28;19921;-76
2022/06/27 07:06:15;;;;;;;;;;;30.60;46.70;;;;;;5018322;28;19940;-76
2022/06/27 07:08:41;;;;;;;;;;;30.70;46.70;;;;;;5018449;28;20002;-76
2022/06/27 07:11:08;;;;;;;;;;;30.70;46.70;;;;;;5018178;28;19994;-76
2022/06/27 07:13:33;;;;;;;;;;;30.70;46.70;;;;;;5001868;28;19909;-76
2022/06/27 07:15:59;;;;;;;;;;;30.60;46.70;;;;;;5017909;28;19916;-76
2022/06/27 07:18:25;;;;;;;;;;;30.70;46.70;;;;;;5017649;28;19909;-75
2022/06/27 07:20:50;;;;;;;;;;;30.70;46.70;;;;;;5017976;28;20285;-76
2022/06/27 07:23:17;;;;;;;;;;;30.70;47.50;;;;;;5001578;28;19913;-77
2022/06/27 07:25:42;;;;;;;;;;;30.70;46.70;;;;;;5017887;28;19975;-77
2022/06/27 07:28:08;;;;;;;;;;;30.60;46.70;;;;;;5017400;28;20412;-76
2022/06/27 07:30:34;;;;;;;;;;;30.60;46.80;;;;;;5000908;28;20009;-76
2022/06/27 07:33:00;;;;;;;;;;;30.60;46.70;;;;;;5001312;28;19909;-76
2022/06/27 07:35:27;;;;;;;;;;;30.60;46.70;;;;;;5035029;28;19909;-76
2022/06/27 07:37:52;;;;;;;;;;;30.60;46.80;;;;;;5001366;28;19909;-76
2022/06/27 07:40:18;;;;;;;;;;;30.60;47.00;;;;;;5017602;28;20336;-76
2022/06/27 07:42:44;;;;;;;;;;;30.60;47.00;;;;;;5000910;28;19958;-76
2022/06/27 07:45:11;;;;;;;;;;;30.60;47.00;;;;;;5017117;28;20374;-75
2022/06/27 07:47:38;;;;;;;;;;;30.60;47.00;;;;;;5017101;28;19913;-76
2022/06/27 07:50:03;;;;;;;;;;;30.60;47.10;;;;;;5017305;28;19916;-76
2022/06/27 07:52:29;;;;;;;;;;;30.50;47.00;;;;;;5016746;28;19913;-76
2022/06/27 07:54:55;;;;;;;;;;;30.50;47.10;;;;;;5034393;28;19909;-76
2022/06/27 07:57:21;;;;;;;;;;;30.50;47.10;;;;;;5000161;28;19960;-76
2022/06/27 07:59:48;;;;;;;;;;;30.50;47.10;;;;;;5034139;28;19913;-77
2022/06/27 08:02:13;;;;;;;;;;;30.50;47.10;;;;;;5034365;28;19916;-76
2022/06/27 08:04:41;;;;;;;;;;;30.50;47.20;;;;;;5016461;28;19921;-75
2022/06/27 08:07:06;;;;;;;;;;;30.50;47.20;;;;;;5016871;28;20069;-75
2022/06/27 08:09:32;;;;;;;;;;;30.50;47.20;;;;;;5016391;28;20011;-76
2022/06/27 08:11:58;;;;;;;;;;;30.50;47.20;;;;;;4999481;28;19909;-76
2022/06/27 08:14:23;;;;;;;;;;;30.50;47.20;;;;;;5016285;28;19976;-76
2022/06/27 08:16:51;;;;;;;;;;;30.50;47.30;;;;;;4999475;28;19913;-75
2022/06/27 08:19:16;;;;;;;;;;;30.50;47.30;;;;;;4999774;28;19919;-75
2022/06/27 08:21:43;;;;;;;;;;;30.50;47.30;;;;;;5016054;28;19992;-75
2022/06/27 08:24:11;;;;;;;;;;;30.50;47.30;;;;;;5016277;28;19967;-76
2022/06/27 08:26:36;;;;;;;;;;;30.50;47.30;;;;;;5016357;28;20369;-77
2022/06/27 08:29:03;;;;;;;;;;;30.60;47.30;;;;;;5015898;28;19923;-76
2022/06/27 08:31:30;;;;;;;;;;;30.50;47.20;;;;;;5015859;28;20013;-76
2022/06/27 08:34:00;;;;;;;;;;;30.50;47.30;;;;;;4999868;28;19955;-76
2022/06/27 08:36:30;;;;;;;;;;;30.60;47.40;;;;;;5023562;28;19916;-76
2022/06/27 08:38:59;;;;;;;;;;;30.50;47.30;;;;;;5016569;28;19910;-76
2022/06/27 08:41:25;;;;;;;;;;;30.50;47.30;;;;;;5035024;28;19909;-76
2022/06/27 08:43:55;;;;;;;;;;;30.50;47.30;;;;;;5019913;28;19944;-76
2022/06/27 08:46:22;;;;;;;;;;;30.50;47.40;;;;;;5019795;28;19913;-76
2022/06/27 08:48:49;;;;;;;;;;;30.50;47.40;;;;;;5019771;28;19916;-76
2022/06/27 08:51:14;;;;;;;;;;;30.50;47.40;;;;;;5020122;28;19909;-76
2022/06/27 08:53:40;;;;;;;;;;;30.50;47.40;;;;;;5019554;28;20308;-76
2022/06/27 08:56:10;;;;;;;;;;;30.50;47.40;;;;;;5019697;28;19909;-76
2022/06/27 08:58:36;;;;;;;;;;;30.50;47.40;;;;;;5020539;28;20361;-76
2022/06/27 09:01:02;;;;;;;;;;;30.50;47.40;;;;;;5019609;28;19915;-76
2022/06/27 09:03:27;;;;;;;;;;;30.50;47.40;;;;;;5019288;28;19948;-76
2022/06/27 09:05:57;;;;;;;;;;;30.50;47.40;;;;;;5003083;28;19913;-76
2022/06/27 09:08:23;;;;;;;;;;;30.50;47.40;;;;;;5019697;28;20369;-77
2022/06/27 09:10:49;;;;;;;;;;;30.40;47.40;;;;;;5019380;28;19917;-76
2022/06/27 09:13:15;;;;;;;;;;;30.50;47.40;;;;;;5003175;28;20031;-76
2022/06/27 09:15:53;;;;;;;;;;;30.50;47.40;;;;;;5019262;28;19916;-76
2022/06/27 09:18:20;;;;;;;;;;;30.50;47.40;;;;;;5037304;28;19967;-75
2022/06/27 09:21:02;;;;;;;;;;;30.50;47.40;;;;;;5019078;28;20365;-76
2022/06/27 09:23:41;;;;;;;;;;;30.50;47.40;;;;;;5036847;28;19909;-76
2022/06/27 09:26:23;;;;;;;;;;;30.50;47.40;;;;;;5018824;28;20015;-76
2022/06/27 09:28:53;;;;;;;;;;;30.40;47.40;;;;;;5019054;28;19909;-76
2022/06/27 09:31:25;;;;;;;;;;;30.50;47.40;;;;;;5018918;28;20016;-76
2022/06/27 09:34:00;;;;;;;;;;;30.50;47.40;;;;;;5036400;28;19915;-76
2022/06/27 09:36:26;;;;;;;;;;;30.40;47.30;;;;;;5018652;28;19935;-75
2022/06/27 09:38:52;;;;;;;;;;;30.50;47.40;;;;;;5012774;28;19908;-77
2022/06/27 09:41:18;;;;;;;;;;;30.50;47.30;;;;;;5038669;28;19959;-76
2022/06/27 09:43:46;;;;;;;;;;;30.50;47.40;;;;;;5022302;28;19908;-75
2022/06/27 09:46:13;;;;;;;;;;;30.50;47.40;;;;;;5022281;28;19952;-76
2022/06/27 09:48:43;;;;;;;;;;;30.50;47.30;;;;;;5021912;28;19920;-76
2022/06/27 09:51:10;;;;;;;;;;;30.50;47.30;;;;;;5022054;28;19912;-76
2022/06/27 09:53:36;;;;;;;;;;;30.50;47.30;;;;;;5055763;28;19909;-76
2022/06/27 09:56:02;;;;;;;;;;;30.50;47.30;;;;;;5056352;28;20379;-76
2022/06/27 09:58:29;;;;;;;;;;;30.50;47.40;;;;;;5022072;28;20290;-77
2022/06/27 10:00:54;;;;;;;;;;;30.50;47.40;;;;;;5021770;28;20324;-76
2022/06/27 10:03:20;;;;;;;;;;;30.50;47.40;;;;;;5055864;28;19908;-76
2022/06/27 10:05:45;;;;;;;;;;;30.50;47.40;;;;;;5022116;28;19913;-76
2022/06/27 10:08:12;;;;;;;;;;;30.50;47.30;;;;;;5021192;28;19952;-76
2022/06/27 10:10:56;;;;;;;;;;;30.50;47.30;;;;;;5038044;28;19908;-76
2022/06/27 10:13:21;;;;;;;;;;;30.50;47.30;;;;;;5055789;28;19909;-76
2022/06/27 10:15:47;;;;;;;;;;;30.60;47.30;;;;;;5021509;28;19974;-76
2022/06/27 10:18:13;;;;;;;;;;;30.60;47.30;;;;;;5021415;28;19991;-76
2022/06/27 10:20:38;;;;;;;;;;;30.60;47.30;;;;;;5037807;28;19913;-76
2022/06/27 10:23:03;;;;;;;;;;;30.60;47.40;;;;;;5037609;28;19915;-76
2022/06/27 10:25:29;;;;;;;;;;;30.60;47.30;;;;;;5055687;28;20284;-76
2022/06/27 10:28:07;;;;;;;;;;;30.60;47.30;;;;;;5055639;28;20273;-76
2022/06/27 10:30:42;;;;;;;;;;;30.60;47.30;;;;;;5055357;28;20377;-76
2022/06/27 10:33:23;;;;;;;;;;;30.50;47.30;;;;;;5037664;28;19910;-76
2022/06/27 10:38:49;;;;;;;;;;;30.50;47.30;;;;;;5036607;28;20695;-76
2022/06/27 10:41:18;;;;;;;;;;;30.50;47.30;;;;;;5000901;28;20004;-76
2022/06/27 10:43:47;;;;;;;;;;;30.50;47.30;;;;;;5035298;28;20350;-76
2022/06/27 10:46:15;;;;;;;;;;;30.60;47.40;;;;;;5017626;28;19958;-76
2022/06/27 10:49:01;;;;;;;;;;;30.60;47.40;;;;;;5017094;28;19995;-76
2022/06/27 10:51:33;;;;;;;;;;;30.60;47.40;;;;;;5034296;28;19916;-76
2022/06/27 10:53:59;;;;;;;;;;;30.60;47.30;;;;;;5001027;28;19940;-76
2022/06/27 10:56:30;;;;;;;;;;;30.60;47.40;;;;;;5034926;28;19909;-76
2022/06/27 10:58:56;;;;;;;;;;;30.50;47.40;;;;;;5017240;28;19921;-76
2022/06/27 11:01:22;;;;;;;;;;;30.50;47.40;;;;;;5000905;28;19909;-76
2022/06/27 11:03:47;;;;;;;;;;;30.60;47.40;;;;;;5033673;28;19944;-77
2022/06/27 11:06:16;;;;;;;;;;;30.60;47.40;;;;;;5017114;28;19921;-76
2022/06/27 11:08:42;;;;;;;;;;;30.60;47.30;;;;;;5001087;28;19909;-76
2022/06/27 11:11:07;;;;;;;;;;;30.60;47.40;;;;;;5000487;28;20432;-76
2022/06/27 11:13:33;;;;;;;;;;;30.60;47.40;;;;;;5000439;28;20004;-76
2022/06/27 11:15:59;;;;;;;;;;;30.60;47.40;;;;;;5000513;28;19967;-77
2022/06/27 11:18:24;;;;;;;;;;;30.60;47.40;;;;;;5034497;28;19937;-76
2022/06/27 11:20:50;;;;;;;;;;;30.60;47.40;;;;;;5034668;28;20369;-75
2022/06/27 11:23:15;;;;;;;;;;;30.60;47.40;;;;;;5035124;28;19909;-76
2022/06/27 11:25:41;;;;;;;;;;;30.60;48.00;;;;;;5017264;28;19909;-76
2022/06/27 11:33:35;;;;;;;;;;;30.60;47.40;;;;;;5019624;28;19963;-76
2022/06/27 11:36:01;;;;;;;;;;;30.60;47.40;;;;;;5034915;28;19909;-76
2022/06/27 11:38:30;;;;;;;;;;;30.60;47.40;;;;;;5034905;28;19916;-76
2022/06/27 11:41:00;;;;;;;;;;;30.60;47.40;;;;;;5016924;28;19924;-76
2022/06/27 11:43:46;;;;;;;;;;;30.60;47.40;;;;;;5034620;28;19919;-77
2022/06/27 11:46:24;;;;;;;;;;;30.60;47.40;;;;;;5015962;28;19916;-76
2022/06/27 11:48:54;;;;;;;;;;;30.60;48.10;;;;;;5016547;28;19920;-75
2022/06/27 11:51:28;;;;;;;;;;;30.60;47.40;;;;;;5016701;28;20039;-76
2022/06/27 11:53:54;;;;;;;;;;;30.60;47.40;;;;;;5000107;28;19910;-77
2022/06/27 11:56:20;;;;;;;;;;;30.60;47.40;;;;;;4999832;28;19916;-76
2022/06/27 11:58:52;;;;;;;;;;;30.60;47.40;;;;;;5016254;28;19909;-77
2022/06/27 12:01:18;;;;;;;;;;;30.50;47.40;;;;;;5016435;28;19909;-76
2022/06/27 12:04:02;;;;;;;;;;;30.50;47.40;;;;;;5015738;28;19940;-76
2022/06/27 12:06:28;;;;;;;;;;;30.60;47.50;;;;;;5033843;28;19917;-76
2022/06/27 12:08:57;;;;;;;;;;;30.60;47.50;;;;;;5016198;28;19916;-75
2022/06/27 12:11:27;;;;;;;;;;;30.60;47.50;;;;;;4999737;28;19909;-76
2022/06/27 12:13:57;;;;;;;;;;;30.60;47.50;;;;;;5033486;28;19910;-76
2022/06/27 12:16:22;;;;;;;;;;;30.60;47.60;;;;;;5016084;28;19917;-77
2022/06/27 12:18:51;;;;;;;;;;;30.50;47.80;;;;;;4999317;28;19910;-76
2022/06/27 12:21:17;;;;;;;;;;;30.60;47.50;;;;;;5015768;28;19960;-76
2022/06/27 12:23:42;;;;;;;;;;;30.60;47.50;;;;;;5015986;28;19909;-76
2022/06/27 12:26:09;;;;;;;;;;;30.60;47.60;;;;;;5033377;28;19925;-76
2022/06/27 12:28:35;;;;;;;;;;;30.60;47.60;;;;;;5033509;28;19947;-76
2022/06/27 12:31:00;;;;;;;;;;;30.60;47.60;;;;;;5015853;28;19909;-76
2022/06/27 12:33:26;;;;;;;;;;;30.60;48.20;;;;;;5015599;28;19916;-76
2022/06/27 12:35:52;;;;;;;;;;;30.60;47.50;;;;;;5033232;28;19909;-76
2022/06/27 12:38:17;;;;;;;;;;;30.60;47.50;;;;;;5033717;28;19912;-76
2022/06/27 12:40:42;;;;;;;;;;;30.60;47.50;;;;;;5015574;28;19909;-76
2022/06/27 12:43:08;;;;;;;;;;;30.60;47.60;;;;;;5015257;28;20000;-76
2022/06/27 12:45:34;;;;;;;;;;;30.60;47.60;;;;;;5015437;28;19952;-76
2022/06/27 12:48:01;;;;;;;;;;;30.60;47.60;;;;;;5015549;28;20369;-76
2022/06/27 12:50:26;;;;;;;;;;;30.60;47.50;;;;;;5015593;28;19916;-77
2022/06/27 12:52:52;;;;;;;;;;;30.60;47.50;;;;;;5033438;28;20012;-76
2022/06/27 12:55:17;;;;;;;;;;;30.60;47.50;;;;;;5033252;28;19916;-76
2022/06/27 12:57:43;;;;;;;;;;;30.70;47.50;;;;;;5033097;28;20420;-76
2022/06/27 13:00:09;;;;;;;;;;;30.60;47.50;;;;;;4999148;28;19909;-75
2022/06/27 13:02:34;;;;;;;;;;;30.60;48.30;;;;;;5015493;28;19910;-77
2022/06/27 13:05:00;;;;;;;;;;;30.60;47.70;;;;;;4995666;28;19925;-76
2022/06/27 13:07:25;;;;;;;;;;;30.60;47.80;;;;;;5012101;28;19924;-76
2022/06/27 13:09:51;;;;;;;;;;;30.50;47.70;;;;;;5013452;28;19959;-76
2022/06/27 13:12:16;;;;;;;;;;;30.50;47.90;;;;;;4995619;28;19945;-76
2022/06/27 13:14:42;;;;;;;;;;;30.50;47.80;;;;;;4995735;28;19932;-75
2022/06/27 13:17:07;;;;;;;;;;;30.60;47.80;;;;;;4995542;28;19913;-77
2022/06/27 13:19:33;;;;;;;;;;;30.50;47.80;;;;;;5011781;28;19916;-77
2022/06/27 13:21:58;;;;;;;;;;;30.50;47.80;;;;;;5011827;28;20400;-75
2022/06/27 13:24:24;;;;;;;;;;;30.50;47.80;;;;;;5012056;28;19916;-75
2022/06/27 13:26:49;;;;;;;;;;;30.60;47.90;;;;;;5013630;28;19921;-76
2022/06/27 13:29:15;;;;;;;;;;;30.60;47.80;;;;;;5015609;28;20349;-76
2022/06/27 13:31:40;;;;;;;;;;;30.60;47.70;;;;;;5015658;28;19913;-76
2022/06/27 13:34:05;;;;;;;;;;;30.60;47.70;;;;;;4999725;28;19914;-76
2022/06/27 13:36:31;;;;;;;;;;;30.60;47.70;;;;;;5015781;28;19920;-76
2022/06/27 13:38:56;;;;;;;;;;;30.60;47.60;;;;;;5015852;28;19925;-77
2022/06/27 13:41:22;;;;;;;;;;;30.70;47.60;;;;;;4999189;28;19944;-76
2022/06/27 13:43:47;;;;;;;;;;;30.70;47.70;;;;;;5015511;28;19959;-76
2022/06/27 13:46:13;;;;;;;;;;;30.70;47.60;;;;;;4998643;28;19913;-76
2022/06/27 13:48:38;;;;;;;;;;;30.70;47.70;;;;;;4998937;28;19917;-76
2022/06/27 13:51:04;;;;;;;;;;;30.70;47.70;;;;;;5015093;28;20297;-75
2022/06/27 13:53:30;;;;;;;;;;;30.70;47.60;;;;;;5015107;28;20400;-76
2022/06/27 13:55:55;;;;;;;;;;;30.70;47.60;;;;;;4998672;28;19910;-76
2022/06/27 13:58:21;;;;;;;;;;;30.70;47.60;;;;;;5014904;28;20008;-75
2022/06/27 14:00:46;;;;;;;;;;;30.70;47.70;;;;;;5014849;28;19916;-76
2022/06/27 14:03:12;;;;;;;;;;;30.70;47.70;;;;;;5014763;28;19909;-76
2022/06/27 14:05:37;;;;;;;;;;;30.70;47.70;;;;;;5014607;28;20293;-76
2022/06/27 14:08:03;;;;;;;;;;;30.70;47.70;;;;;;5015204;28;19956;-75
2022/06/27 14:10:29;;;;;;;;;;;30.70;47.80;;;;;;5015030;28;20385;-77
2022/06/27 14:12:55;;;;;;;;;;;30.60;47.70;;;;;;5014805;28;19909;-75
2022/06/27 14:15:20;;;;;;;;;;;30.60;47.80;;;;;;5014780;28;19916;-76
2022/06/27 14:17:46;;;;;;;;;;;30.60;47.80;;;;;;5014747;28;20350;-76
2022/06/27 14:20:12;;;;;;;;;;;30.60;47.90;;;;;;5014857;28;19910;-76
2022/06/27 14:22:38;;;;;;;;;;;30.60;47.80;;;;;;5014708;28;19914;-75
2022/06/27 14:25:03;;;;;;;;;;;30.70;47.80;;;;;;5015803;28;19909;-76